Time;durP1;ratioP1;P1;durP2;ratioP2;P2;SDS_P1;SDS_P2;PMS_P1;PMS_P2;Temp;Humidity;BMP_temperature;BMP_pressure;BME280_temperature;BME280_humidity;BME280_pressure;Samples;Min_cycle;Max_cycle;Signal;HPM_P1;HPM_P2
2022/06/11 00:00:56;;;;;;;5.83;3.60;;;16.70;99.90;;;;;;6162829;23;20406;-87
2022/06/11 00:03:23;;;;;;;6.90;4.43;;;16.80;99.90;;;;;;6162791;23;20739;-87
2022/06/11 00:05:50;;;;;;;6.20;4.40;;;16.60;99.90;;;;;;6163806;23;20392;-89
2022/06/11 00:08:19;;;;;;;7.33;4.77;;;16.70;99.90;;;;;;6166894;23;20547;-87
2022/06/11 00:10:47;;;;;;;7.63;4.40;;;16.60;99.90;;;;;;6173762;23;20478;-88
2022/06/11 00:13:15;;;;;;;8.47;4.10;;;16.60;99.90;;;;;;6180784;23;20407;-87
2022/06/11 00:15:43;;;;;;;4.87;3.60;;;16.60;99.90;;;;;;6184278;23;20406;-87
2022/06/11 00:18:11;;;;;;;8.63;4.27;;;16.50;99.90;;;;;;6184279;23;20434;-87
2022/06/11 00:20:38;;;;;;;7.50;4.57;;;16.50;99.90;;;;;;6184084;23;20426;-88
2022/06/11 00:23:05;;;;;;;5.90;4.20;;;16.40;99.90;;;;;;6180181;23;20433;-87
2022/06/11 00:25:36;;;;;;;8.63;4.40;;;16.40;99.90;;;;;;6169656;23;20412;-88
2022/06/11 00:28:04;;;;;;;8.00;3.83;;;16.40;99.90;;;;;;6165947;23;20435;-88
2022/06/11 00:30:32;;;;;;;7.10;4.30;;;16.40;99.90;;;;;;6166519;23;20472;-88
2022/06/11 00:32:59;;;;;;;7.70;4.70;;;16.30;99.90;;;;;;6164833;23;20419;-87
2022/06/11 00:35:29;;;;;;;7.33;4.10;;;16.40;99.90;;;;;;6165691;23;20411;-88
2022/06/11 00:37:56;;;;;;;6.73;4.10;;;16.40;99.90;;;;;;6164812;23;20794;-87
2022/06/11 00:40:25;;;;;;;7.03;4.17;;;16.30;99.90;;;;;;6163645;23;20399;-87
2022/06/11 00:42:54;;;;;;;11.03;4.90;;;16.30;99.90;;;;;;6163077;23;20941;-89
2022/06/11 00:45:25;;;;;;;6.73;4.37;;;16.40;99.90;;;;;;6167069;23;20403;-87
2022/06/11 00:47:56;;;;;;;8.00;4.00;;;16.40;99.90;;;;;;6161546;23;20447;-87
2022/06/11 00:50:27;;;;;;;10.33;4.50;;;16.50;99.90;;;;;;6162856;23;20412;-87
2022/06/11 00:52:57;;;;;;;7.70;4.27;;;16.20;99.90;;;;;;6162161;23;20739;-87
2022/06/11 00:55:30;;;;;;;7.50;4.00;;;16.10;99.90;;;;;;6164132;23;20355;-87
2022/06/11 00:58:03;;;;;;;5.10;3.70;;;16.00;99.90;;;;;;6166508;23;20446;-87
2022/06/11 01:00:34;;;;;;;5.83;3.50;;;16.00;99.90;;;;;;6167117;23;20394;-87
2022/06/11 01:03:02;;;;;;;7.50;4.20;;;16.00;99.90;;;;;;6171884;23;20476;-87
2022/06/11 01:05:33;;;;;;;9.20;4.07;;;16.00;99.90;;;;;;6165622;23;20911;-88
2022/06/11 01:08:20;;;;;;;5.50;3.73;;;16.00;99.90;;;;;;6163864;23;20423;-88
2022/06/11 01:11:15;;;;;;;6.20;3.47;;;16.00;99.90;;;;;;6166015;23;20430;-87
2022/06/11 01:13:53;;;;;;;6.83;3.73;;;15.90;99.90;;;;;;6171486;23;20410;-88
2022/06/11 01:16:26;;;;;;;7.60;3.80;;;15.90;99.90;;;;;;6183587;23;20413;-88
2022/06/11 01:19:01;;;;;;;4.87;3.90;;;15.80;99.90;;;;;;6162935;23;20412;-88
2022/06/11 01:21:35;;;;;;;7.53;4.03;;;15.80;99.90;;;;;;6161172;23;20898;-88
2022/06/11 01:24:23;;;;;;;6.70;3.90;;;15.90;99.90;;;;;;6160494;23;20824;-88
2022/06/11 01:27:46;;;;;;;7.83;4.33;;;15.90;99.90;;;;;;6140491;23;20385;-88
2022/06/11 01:30:17;;;;;;;9.70;3.70;;;15.80;99.90;;;;;;6040492;23;20429;-87
2022/06/11 01:32:52;;;;;;;5.67;3.70;;;15.90;99.90;;;;;;6041016;23;20385;-87
2022/06/11 01:35:46;;;;;;;5.60;4.03;;;15.90;99.90;;;;;;6102889;23;20413;-88
2022/06/11 01:38:23;;;;;;;8.10;4.07;;;15.80;99.90;;;;;;6159843;23;20437;-88
2022/06/11 01:40:54;;;;;;;5.50;3.30;;;15.80;99.90;;;;;;6161129;23;20376;-89
2022/06/11 01:43:26;;;;;;;8.30;3.83;;;15.70;99.90;;;;;;6169778;23;20437;-88
2022/06/11 01:45:55;;;;;;;5.60;4.00;;;15.70;99.90;;;;;;6181689;23;20383;-89
2022/06/11 01:48:28;;;;;;;7.27;3.47;;;15.70;99.90;;;;;;6183621;23;20430;-88
2022/06/11 01:51:09;;;;;;;6.10;3.40;;;15.60;99.90;;;;;;6171508;23;20452;-88
2022/06/11 01:54:02;;;;;;;6.10;3.70;;;15.60;99.90;;;;;;6160393;23;20404;-87
2022/06/11 01:56:49;;;;;;;5.87;3.53;;;15.50;99.90;;;;;;6160677;23;20410;-87
2022/06/11 01:59:43;;;;;;;5.33;3.60;;;15.50;99.90;;;;;;6158713;23;20441;-88
2022/06/11 02:02:25;;;;;;;6.60;3.67;;;15.40;99.90;;;;;;6160655;23;20419;-87
2022/06/11 02:05:00;;;;;;;5.47;3.40;;;15.40;99.90;;;;;;6160368;23;20395;-87
2022/06/11 02:07:38;;;;;;;5.60;3.53;;;15.50;99.90;;;;;;6158734;23;20458;-88
2022/06/11 02:10:11;;;;;;;5.53;3.40;;;15.40;99.90;;;;;;6160581;23;20402;-87
2022/06/11 02:12:43;;;;;;;6.23;3.40;;;15.50;99.90;;;;;;6168947;23;20382;-88
2022/06/11 02:15:18;;;;;;;4.80;3.33;;;15.50;99.90;;;;;;6166677;23;20395;-87
2022/06/11 02:17:54;;;;;;;4.93;2.80;;;15.50;99.90;;;;;;6166341;23;20465;-88
2022/06/11 02:20:25;;;;;;;5.30;3.53;;;15.60;99.90;;;;;;6160661;23;20383;-88
2022/06/11 02:22:58;;;;;;;6.33;3.43;;;15.60;99.90;;;;;;6160716;23;20438;-88
2022/06/11 02:25:29;;;;;;;5.33;3.60;;;15.60;99.90;;;;;;6160265;23;20384;-88
2022/06/11 02:28:02;;;;;;;7.47;3.90;;;15.60;99.90;;;;;;6159708;23;20416;-88
2022/06/11 02:30:32;;;;;;;6.50;3.47;;;15.60;99.90;;;;;;6164269;23;20437;-88
2022/06/11 02:33:03;;;;;;;4.97;3.53;;;15.60;99.90;;;;;;6176250;23;20425;-88
2022/06/11 02:35:37;;;;;;;8.30;4.23;;;15.60;99.90;;;;;;6164230;23;20361;-88
2022/06/11 02:38:05;;;;;;;5.20;3.43;;;15.60;99.90;;;;;;6169169;23;20411;-88
2022/06/11 02:40:36;;;;;;;4.80;3.50;;;15.60;99.90;;;;;;6161828;23;20389;-87
2022/06/11 02:43:04;;;;;;;7.30;3.57;;;15.70;99.90;;;;;;6161199;23;20420;-87
2022/06/11 02:45:31;;;;;;;6.63;3.80;;;15.60;99.90;;;;;;6171399;23;20440;-88
2022/06/11 02:47:58;;;;;;;7.40;3.23;;;15.60;99.90;;;;;;6175552;23;20501;-90
2022/06/11 02:50:31;;;;;;;4.77;2.87;;;15.60;99.90;;;;;;6161830;23;20797;-88
2022/06/11 02:53:00;;;;;;;9.47;3.63;;;15.60;99.90;;;;;;6161809;23;20384;-87
2022/06/11 02:55:27;;;;;;;9.10;3.37;;;15.60;99.90;;;;;;6163863;23;20377;-88
2022/06/11 02:57:55;;;;;;;6.87;2.93;;;15.60;99.90;;;;;;6168770;23;20636;-88
2022/06/11 03:00:26;;;;;;;7.00;3.47;;;15.70;99.90;;;;;;6198804;23;20383;-87
2022/06/11 03:02:53;;;;;;;6.17;3.50;;;15.60;99.90;;;;;;6196052;23;20411;-88
2022/06/11 03:05:22;;;;;;;7.03;3.23;;;15.60;99.90;;;;;;6194673;23;20414;-87
2022/06/11 03:07:51;;;;;;;5.00;3.30;;;15.60;99.90;;;;;;6191075;23;20417;-88
2022/06/11 03:10:21;;;;;;;6.80;3.97;;;15.70;99.90;;;;;;6162739;23;20474;-88
2022/06/11 03:12:49;;;;;;;7.13;4.00;;;15.60;99.90;;;;;;6163453;23;20431;-87
2022/06/11 03:15:17;;;;;;;6.40;3.50;;;15.70;99.90;;;;;;6163673;23;20399;-88
2022/06/11 03:17:46;;;;;;;6.00;3.67;;;15.60;99.90;;;;;;6169407;23;20446;-88
2022/06/11 03:20:15;;;;;;;7.63;3.80;;;15.50;99.90;;;;;;6169847;23;20423;-88
2022/06/11 03:22:42;;;;;;;5.90;3.70;;;15.40;99.90;;;;;;6176121;23;20466;-87
2022/06/11 03:25:12;;;;;;;5.70;3.70;;;15.30;99.90;;;;;;6181816;23;20388;-87
2022/06/11 03:27:40;;;;;;;6.73;3.30;;;15.40;99.90;;;;;;6174107;23;20402;-88
2022/06/11 03:30:09;;;;;;;7.50;3.93;;;15.40;99.90;;;;;;6169957;23;20491;-87
2022/06/11 03:32:36;;;;;;;5.80;3.40;;;15.30;99.90;;;;;;6169955;23;20385;-87
2022/06/11 03:35:05;;;;;;;6.87;3.70;;;15.40;99.90;;;;;;6169445;23;20418;-87
2022/06/11 03:37:33;;;;;;;7.10;3.80;;;15.50;99.90;;;;;;6168012;23;20420;-87
2022/06/11 03:40:00;;;;;;;8.50;3.60;;;15.50;99.90;;;;;;6166888;23;20420;-88
2022/06/11 03:42:28;;;;;;;5.07;3.70;;;15.50;99.90;;;;;;6176795;23;20416;-88
2022/06/11 03:44:55;;;;;;;6.67;3.30;;;15.60;99.90;;;;;;6172317;23;20419;-88
2022/06/11 03:47:22;;;;;;;4.67;3.40;;;15.60;99.90;;;;;;6164617;23;20723;-88
2022/06/11 03:49:49;;;;;;;5.07;3.27;;;15.70;99.90;;;;;;6165001;23;20438;-89
2022/06/11 03:52:16;;;;;;;5.40;3.93;;;15.70;99.90;;;;;;6164169;23;20810;-88
2022/06/11 03:54:43;;;;;;;7.73;4.00;;;15.60;99.90;;;;;;6164013;23;20420;-88
2022/06/11 03:57:10;;;;;;;5.23;3.20;;;15.50;99.90;;;;;;6164582;23;20448;-89
2022/06/11 03:59:38;;;;;;;8.53;3.73;;;15.50;99.90;;;;;;6175842;23;20480;-88
2022/06/11 04:02:05;;;;;;;5.65;3.75;;;15.60;99.90;;;;;;6182814;23;20402;-88
2022/06/11 04:04:32;;;;;;;6.03;3.67;;;15.60;99.90;;;;;;6180591;23;20414;-86
2022/06/11 04:07:02;;;;;;;6.13;3.30;;;15.50;99.90;;;;;;6165551;23;20461;-88
2022/06/11 04:09:31;;;;;;;6.40;3.40;;;15.50;99.90;;;;;;6164631;23;20445;-88
2022/06/11 04:12:00;;;;;;;6.30;2.87;;;15.50;99.90;;;;;;6166340;23;20425;-88
2022/06/11 04:14:27;;;;;;;5.00;3.67;;;15.40;99.90;;;;;;6167778;23;20402;-88
2022/06/11 04:16:58;;;;;;;5.10;3.20;;;15.50;99.90;;;;;;6163869;23;20416;-88
2022/06/11 04:19:29;;;;;;;5.37;3.63;;;15.50;99.90;;;;;;6165734;23;20445;-88
2022/06/11 04:21:58;;;;;;;5.90;3.40;;;15.50;99.90;;;;;;6182745;23;20397;-89
2022/06/11 04:24:26;;;;;;;5.83;3.27;;;15.50;99.90;;;;;;6183824;23;20446;-88
2022/06/11 04:26:56;;;;;;;6.50;3.10;;;15.60;99.90;;;;;;6182983;23;20473;-87
2022/06/11 04:29:26;;;;;;;5.00;3.30;;;15.70;99.90;;;;;;6182673;23;20426;-88
2022/06/11 04:31:58;;;;;;;9.10;3.20;;;15.80;99.90;;;;;;6183633;23;20382;-89
2022/06/11 04:34:28;;;;;;;5.23;3.63;;;15.80;99.90;;;;;;6183884;23;20373;-88
2022/06/11 04:36:56;;;;;;;4.63;3.37;;;15.90;99.90;;;;;;6178097;23;20420;-88
2022/06/11 04:39:26;;;;;;;6.60;3.80;;;16.00;99.90;;;;;;6160674;23;20497;-88
2022/06/11 04:41:54;;;;;;;6.03;3.87;;;16.10;99.90;;;;;;6160888;23;20407;-87
2022/06/11 04:44:22;;;;;;;6.40;3.37;;;16.20;99.90;;;;;;6159707;23;20526;-88
2022/06/11 04:46:49;;;;;;;6.47;3.00;;;16.20;99.90;;;;;;6159276;23;20475;-88
2022/06/11 04:49:18;;;;;;;5.00;3.60;;;16.30;99.90;;;;;;6161534;23;20421;-87
2022/06/11 04:51:45;;;;;;;6.40;3.77;;;16.30;99.90;;;;;;6161656;23;20810;-87
2022/06/11 04:54:12;;;;;;;5.27;3.50;;;16.50;99.90;;;;;;6164908;23;20440;-87
2022/06/11 04:56:40;;;;;;;5.50;3.50;;;16.60;99.90;;;;;;6164390;23;20459;-87
2022/06/11 04:59:07;;;;;;;6.30;4.23;;;16.60;99.90;;;;;;6162946;23;20535;-87
2022/06/11 05:01:34;;;;;;;5.63;3.27;;;16.70;99.90;;;;;;6163366;23;20421;-87
2022/06/11 05:04:01;;;;;;;7.90;3.80;;;16.80;99.90;;;;;;6167651;23;20479;-87
2022/06/11 05:06:32;;;;;;;5.23;3.60;;;16.90;99.90;;;;;;6170987;23;20431;-87
2022/06/11 05:08:59;;;;;;;5.50;3.30;;;16.90;99.90;;;;;;6172693;23;20455;-87
2022/06/11 05:11:26;;;;;;;6.97;3.70;;;17.00;99.90;;;;;;6165025;23;20927;-87
2022/06/11 05:13:53;;;;;;;5.07;3.10;;;17.00;99.90;;;;;;6161837;23;20406;-87
2022/06/11 05:16:21;;;;;;;5.00;3.03;;;17.10;99.90;;;;;;6162604;23;20499;-87
2022/06/11 05:18:48;;;;;;;5.20;3.73;;;17.20;99.90;;;;;;6168523;23;20713;-86
2022/06/11 05:21:15;;;;;;;6.13;3.30;;;17.30;99.90;;;;;;6178711;23;20435;-87
2022/06/11 05:23:44;;;;;;;5.63;4.03;;;17.40;99.90;;;;;;6175444;23;20451;-87
2022/06/11 05:26:14;;;;;;;7.60;3.90;;;17.50;99.90;;;;;;6183083;23;20380;-88
2022/06/11 05:28:41;;;;;;;6.73;3.40;;;17.60;99.90;;;;;;6162560;23;20438;-88
2022/06/11 05:31:08;;;;;;;6.07;3.80;;;17.70;99.90;;;;;;6160770;23;20427;-86
2022/06/11 05:33:37;;;;;;;4.73;3.20;;;17.80;99.90;;;;;;6162079;23;20436;-88
2022/06/11 05:36:04;;;;;;;7.73;3.50;;;18.00;99.90;;;;;;6163143;23;20378;-87
2022/06/11 05:38:31;;;;;;;6.37;2.90;;;18.10;99.90;;;;;;6171598;23;20427;-87
2022/06/11 05:41:00;;;;;;;5.47;3.10;;;18.40;99.90;;;;;;6170527;23;20458;-87
2022/06/11 05:43:27;;;;;;;5.00;2.60;;;18.40;99.90;;;;;;6164556;23;20479;-87
2022/06/11 05:45:57;;;;;;;5.53;3.20;;;18.60;99.90;;;;;;6170014;23;20412;-87
2022/06/11 05:48:29;;;;;;;5.10;2.97;;;18.70;99.90;;;;;;6161121;23;20510;-87
2022/06/11 05:50:58;;;;;;;5.00;2.90;;;18.70;99.90;;;;;;6168726;23;20494;-87
2022/06/11 05:53:28;;;;;;;4.13;2.80;;;18.70;99.90;;;;;;6169165;23;20519;-87
2022/06/11 05:56:00;;;;;;;4.70;2.63;;;18.80;99.90;;;;;;6165609;23;20465;-87
2022/06/11 05:58:33;;;;;;;4.70;2.93;;;19.00;99.90;;;;;;6163141;23;20490;-87
2022/06/11 06:01:01;;;;;;;3.93;2.70;;;19.00;99.90;;;;;;6162062;23;20430;-87
2022/06/11 06:03:28;;;;;;;4.30;2.73;;;19.10;99.90;;;;;;6169445;23;20491;-87
2022/06/11 06:05:55;;;;;;;5.97;3.00;;;19.20;99.90;;;;;;6181751;23;20979;-86
2022/06/11 06:08:22;;;;;;;5.37;3.10;;;19.20;99.90;;;;;;6178512;23;20409;-88
2022/06/11 06:10:49;;;;;;;4.17;2.50;;;19.30;99.90;;;;;;6162012;23;20412;-87
2022/06/11 06:16:02;;;;;;;4.73;3.00;;;19.50;99.90;;;;;;6161522;23;20395;-86
2022/06/11 06:18:29;;;;;;;5.40;2.87;;;19.60;99.90;;;;;;6162884;23;20768;-86
2022/06/11 06:20:56;;;;;;;6.77;3.20;;;19.60;99.90;;;;;;6163630;23;20430;-89
2022/06/11 06:23:22;;;;;;;4.17;2.30;;;19.60;99.90;;;;;;6161267;23;20479;-87
2022/06/11 06:25:50;;;;;;;5.47;3.33;;;19.60;99.90;;;;;;6174941;23;20400;-87
2022/06/11 06:28:18;;;;;;;5.40;3.30;;;19.60;99.90;;;;;;6162257;23;20427;-87
2022/06/11 06:30:45;;;;;;;5.43;3.07;;;19.70;99.90;;;;;;6160385;23;20415;-88
2022/06/11 06:33:12;;;;;;;5.40;2.80;;;19.80;99.90;;;;;;6161551;23;20407;-88
2022/06/11 06:35:39;;;;;;;7.97;3.77;;;20.00;99.90;;;;;;6160631;23;20953;-88
2022/06/11 06:38:07;;;;;;;5.80;3.10;;;20.20;99.90;;;;;;6179745;23;20439;-88
2022/06/11 06:40:43;;;;;;;4.83;2.60;;;20.30;99.90;;;;;;6184470;23;20483;-89
2022/06/11 06:43:12;;;;;;;4.00;2.50;;;20.30;99.90;;;;;;6184437;23;20395;-87
2022/06/11 06:45:41;;;;;;;9.23;3.30;;;20.40;99.90;;;;;;6183867;23;20438;-89
2022/06/11 06:48:11;;;;;;;5.33;3.23;;;20.50;99.90;;;;;;6180401;23;20435;-87
2022/06/11 06:50:38;;;;;;;5.10;3.43;;;20.60;99.90;;;;;;6178243;23;20396;-88
2022/06/11 06:53:05;;;;;;;6.90;3.07;;;20.70;99.90;;;;;;6170935;23;20479;-89
2022/06/11 06:55:33;;;;;;;5.00;2.80;;;20.80;99.90;;;;;;6179440;23;20498;-89
2022/06/11 06:58:00;;;;;;;5.33;3.10;;;20.80;99.90;;;;;;6168280;23;20462;-88
2022/06/11 07:00:27;;;;;;;4.67;2.60;;;20.90;99.90;;;;;;6180781;23;20444;-87
2022/06/11 07:02:57;;;;;;;5.40;2.73;;;21.00;99.90;;;;;;6183779;23;20403;-89
2022/06/11 07:05:26;;;;;;;10.10;3.23;;;21.10;99.90;;;;;;6169720;23;20391;-88
2022/06/11 07:07:54;;;;;;;6.33;2.40;;;21.20;99.90;;;;;;6161089;23;20810;-88
2022/06/11 07:10:22;;;;;;;4.00;2.60;;;21.20;99.90;;;;;;6160561;23;20370;-88
2022/06/11 07:12:49;;;;;;;7.57;2.97;;;21.20;99.90;;;;;;6159999;23;20411;-88
2022/06/11 07:15:29;;;;;;;4.87;3.00;;;21.20;99.90;;;;;;6159878;23;20408;-89
2022/06/11 07:18:02;;;;;;;7.37;2.60;;;21.20;99.90;;;;;;6161638;23;20459;-88
2022/06/11 07:20:32;;;;;;;7.60;2.80;;;21.40;99.90;;;;;;6160104;23;20450;-89
2022/06/11 07:23:05;;;;;;;6.07;3.30;;;21.50;99.90;;;;;;6161529;23;20400;-86
2022/06/11 07:25:33;;;;;;;8.43;3.23;;;21.70;99.90;;;;;;6161189;23;20384;-88
2022/06/11 07:28:05;;;;;;;6.87;3.57;;;21.70;99.90;;;;;;6161247;23;20736;-87
2022/06/11 07:30:36;;;;;;;7.70;3.40;;;21.60;99.90;;;;;;6168803;23;20387;-88
2022/06/11 07:33:07;;;;;;;7.60;3.17;;;21.50;99.90;;;;;;6164674;23;20392;-88
2022/06/11 07:35:36;;;;;;;7.17;3.00;;;21.50;99.90;;;;;;6170743;23;20376;-87
2022/06/11 07:38:04;;;;;;;5.60;3.00;;;21.70;99.90;;;;;;6174165;23;20494;-89
2022/06/11 07:40:31;;;;;;;4.30;2.70;;;21.90;99.90;;;;;;6181303;23;20387;-86
2022/06/11 07:43:00;;;;;;;5.80;3.27;;;22.00;99.90;;;;;;6172071;23;20848;-89
2022/06/11 07:45:30;;;;;;;5.70;3.20;;;22.20;99.40;;;;;;6175835;23;20439;-88
2022/06/11 07:47:57;;;;;;;6.57;3.20;;;22.20;99.10;;;;;;6162740;23;20431;-88
2022/06/11 07:50:28;;;;;;;5.80;3.27;;;22.30;98.80;;;;;;6161280;23;20400;-88
2022/06/11 07:52:56;;;;;;;4.80;2.80;;;22.30;98.80;;;;;;6167435;23;20459;-88
2022/06/11 07:55:23;;;;;;;5.33;3.47;;;22.30;98.70;;;;;;6180404;23;20413;-87
2022/06/11 07:57:51;;;;;;;7.20;4.00;;;22.40;98.50;;;;;;6177170;23;20455;-88
2022/06/11 08:00:22;;;;;;;5.20;3.60;;;22.50;98.40;;;;;;6161785;23;20392;-88
2022/06/11 08:02:49;;;;;;;6.50;2.93;;;22.40;97.90;;;;;;6161994;23;20417;-88
2022/06/11 08:05:16;;;;;;;5.30;3.47;;;22.40;98.10;;;;;;6161254;23;20486;-87
2022/06/11 08:07:45;;;;;;;4.50;3.37;;;22.50;97.80;;;;;;6161501;23;20432;-88
2022/06/11 08:10:14;;;;;;;6.10;3.60;;;22.60;98.00;;;;;;6160740;23;20931;-87
2022/06/11 08:12:41;;;;;;;7.00;3.50;;;22.60;98.00;;;;;;6170450;23;20403;-88
2022/06/11 08:15:10;;;;;;;7.90;3.30;;;22.80;97.70;;;;;;6182315;23;20415;-88
2022/06/11 08:17:37;;;;;;;6.87;3.30;;;22.90;97.50;;;;;;6173619;23;20538;-88
2022/06/11 08:20:06;;;;;;;5.87;3.10;;;22.90;96.70;;;;;;6166211;23;20443;-88
2022/06/11 08:22:33;;;;;;;7.27;3.73;;;22.90;96.70;;;;;;6167440;23;20420;-86
2022/06/11 08:25:02;;;;;;;7.53;3.20;;;22.90;96.70;;;;;;6161880;23;20952;-87
2022/06/11 08:27:29;;;;;;;6.40;2.83;;;23.00;96.90;;;;;;6177101;23;20431;-86
2022/06/11 08:29:56;;;;;;;8.30;4.40;;;23.10;96.20;;;;;;6175964;23;20416;-87
2022/06/11 08:32:23;;;;;;;6.73;3.70;;;23.20;95.90;;;;;;6168125;23;20445;-87
2022/06/11 08:34:50;;;;;;;7.13;3.37;;;23.30;95.40;;;;;;6174482;23;20459;-86
2022/06/11 08:37:17;;;;;;;4.90;3.40;;;23.30;95.10;;;;;;6170537;23;20406;-87
2022/06/11 08:39:45;;;;;;;6.17;3.50;;;23.20;94.90;;;;;;6160390;23;20424;-89
2022/06/11 08:42:31;;;;;;;7.53;3.70;;;23.20;94.90;;;;;;6161166;23;20487;-88
2022/06/11 08:44:59;;;;;;;5.90;3.30;;;23.20;94.50;;;;;;6159236;23;20514;-88
2022/06/11 08:47:35;;;;;;;7.47;3.30;;;23.20;94.70;;;;;;6160284;23;20490;-88
2022/06/11 08:50:04;;;;;;;5.63;3.57;;;23.20;94.70;;;;;;6162341;23;20407;-88
2022/06/11 08:52:32;;;;;;;5.10;3.37;;;23.30;94.40;;;;;;6160685;23;20415;-87
2022/06/11 08:55:00;;;;;;;6.53;3.20;;;23.40;94.00;;;;;;6161152;23;20798;-87
2022/06/11 08:57:39;;;;;;;6.63;3.50;;;23.50;94.30;;;;;;6161431;23;20415;-88
2022/06/11 09:00:16;;;;;;;6.63;3.50;;;23.60;93.80;;;;;;6180789;23;20840;-88
2022/06/11 09:03:02;;;;;;;7.20;4.07;;;23.40;94.20;;;;;;6194421;23;20375;-88
2022/06/11 09:05:39;;;;;;;6.30;3.47;;;23.40;93.50;;;;;;6194319;23;20426;-88
2022/06/11 09:08:18;;;;;;;9.97;3.90;;;23.40;93.40;;;;;;6197478;23;20461;-88
2022/06/11 09:10:59;;;;;;;6.57;3.50;;;23.40;93.30;;;;;;6166397;23;20813;-88
2022/06/11 09:13:57;;;;;;;6.53;3.23;;;23.40;93.30;;;;;;6165531;23;20392;-87
2022/06/11 09:16:35;;;;;;;6.30;3.93;;;23.30;93.60;;;;;;6163845;23;20434;-87
2022/06/11 09:19:32;;;;;;;11.03;3.70;;;23.50;93.40;;;;;;6163248;23;20442;-88
2022/06/11 09:22:09;;;;;;;6.00;3.70;;;23.60;93.10;;;;;;6169182;23;20418;-88
2022/06/11 09:25:16;;;;;;;5.80;3.30;;;23.80;93.30;;;;;;6165771;23;20442;-87
2022/06/11 09:27:50;;;;;;;7.60;3.57;;;24.00;92.70;;;;;;6172143;23;20455;-87
2022/06/11 09:30:24;;;;;;;6.00;3.50;;;23.90;92.50;;;;;;6175176;23;20455;-88
2022/06/11 09:32:53;;;;;;;5.30;3.60;;;23.90;91.90;;;;;;6175935;23;20877;-87
2022/06/11 09:35:28;;;;;;;6.70;3.73;;;23.80;92.10;;;;;;6167943;23;20412;-87
2022/06/11 09:38:07;;;;;;;7.63;3.80;;;23.80;92.10;;;;;;6165122;23;20396;-88
2022/06/11 09:40:41;;;;;;;5.40;3.50;;;23.90;91.90;;;;;;6164838;23;20866;-88
2022/06/11 09:43:25;;;;;;;7.60;3.20;;;24.10;91.40;;;;;;6163068;23;20418;-87
2022/06/11 09:46:00;;;;;;;5.90;3.30;;;24.30;91.30;;;;;;6163578;23;20435;-89
2022/06/11 09:48:40;;;;;;;5.37;3.50;;;24.60;90.70;;;;;;6164729;23;20438;-88
2022/06/11 09:51:12;;;;;;;6.37;3.40;;;24.50;90.20;;;;;;6164545;23;20399;-87
2022/06/11 09:53:55;;;;;;;6.73;3.57;;;24.50;90.30;;;;;;6166412;23;20408;-89
2022/06/11 09:56:33;;;;;;;7.20;3.97;;;24.60;90.00;;;;;;6170121;23;20400;-87
2022/06/11 09:59:15;;;;;;;7.00;3.93;;;24.60;90.00;;;;;;6170214;23;20530;-87
2022/06/11 10:01:49;;;;;;;7.50;4.13;;;24.80;89.60;;;;;;6166145;23;20396;-87
2022/06/11 10:04:19;;;;;;;9.27;3.77;;;24.90;88.70;;;;;;6161772;23;20424;-89
2022/06/11 10:06:51;;;;;;;7.10;3.73;;;24.90;87.90;;;;;;6163197;23;20411;-88
2022/06/11 10:09:24;;;;;;;5.67;3.40;;;24.80;88.10;;;;;;6162721;23;20494;-88
2022/06/11 10:11:57;;;;;;;12.73;3.70;;;24.70;88.40;;;;;;6162415;23;20729;-88
2022/06/11 10:14:37;;;;;;;6.53;3.77;;;24.70;89.00;;;;;;6163856;23;20722;-87
2022/06/11 10:17:13;;;;;;;6.20;3.70;;;24.80;88.10;;;;;;6163020;23;20376;-87
2022/06/11 10:19:46;;;;;;;4.87;3.53;;;24.70;88.10;;;;;;6163308;23;20439;-88
2022/06/11 10:22:22;;;;;;;5.40;3.80;;;24.80;88.20;;;;;;6174661;23;20394;-87
2022/06/11 10:25:01;;;;;;;6.17;3.83;;;24.90;88.80;;;;;;6170965;23;20466;-89
2022/06/11 10:27:34;;;;;;;7.87;3.53;;;25.10;88.00;;;;;;6180046;23;20419;-88
2022/06/11 10:30:08;;;;;;;8.00;4.00;;;25.00;87.40;;;;;;6169722;23;20492;-87
2022/06/11 10:32:44;;;;;;;6.43;3.83;;;25.10;86.50;;;;;;6169569;23;20375;-88
2022/06/11 10:35:20;;;;;;;4.90;3.70;;;24.90;87.30;;;;;;6172221;23;20406;-87
2022/06/11 10:37:53;;;;;;;6.67;3.93;;;24.80;87.60;;;;;;6168491;23;20406;-87
2022/06/11 10:40:34;;;;;;;4.63;3.37;;;24.70;87.90;;;;;;6171382;23;20442;-87
2022/06/11 10:43:07;;;;;;;9.63;3.80;;;24.70;87.80;;;;;;6174967;23;20419;-88
2022/06/11 10:45:34;;;;;;;4.87;3.50;;;24.80;87.30;;;;;;6173463;23;20431;-88
2022/06/11 10:48:20;;;;;;;8.03;3.60;;;24.80;87.20;;;;;;6174934;23;20415;-89
2022/06/11 10:51:04;;;;;;;5.97;3.53;;;25.00;87.90;;;;;;6178486;23;20438;-87
2022/06/11 10:54:02;;;;;;;7.53;3.67;;;24.70;87.40;;;;;;6180884;23;20394;-87
2022/06/11 10:56:44;;;;;;;6.37;4.00;;;24.70;88.30;;;;;;6180844;23;20444;-88
2022/06/11 10:59:29;;;;;;;5.67;3.57;;;24.90;87.00;;;;;;6176075;23;20515;-88
2022/06/11 11:02:04;;;;;;;7.07;3.67;;;25.10;86.70;;;;;;6177293;23;20466;-87
2022/06/11 11:04:52;;;;;;;7.97;3.83;;;25.20;85.80;;;;;;6174888;23;20494;-87
2022/06/11 11:07:31;;;;;;;7.80;3.97;;;25.10;86.80;;;;;;6179990;23;20434;-88
2022/06/11 11:10:05;;;;;;;7.00;3.90;;;25.30;85.90;;;;;;6177622;23;20441;-88
2022/06/11 11:12:39;;;;;;;6.23;3.97;;;25.50;84.80;;;;;;6176717;23;20513;-88
2022/06/11 11:15:21;;;;;;;8.20;4.47;;;25.70;84.40;;;;;;6175367;23;20490;-87
2022/06/11 11:17:54;;;;;;;6.53;3.57;;;25.70;84.20;;;;;;6181351;23;20375;-88
2022/06/11 11:20:35;;;;;;;7.00;3.70;;;25.50;84.20;;;;;;6179173;23;20443;-88
2022/06/11 11:23:17;;;;;;;5.97;3.40;;;25.50;84.00;;;;;;6181182;23;20407;-88
2022/06/11 11:25:52;;;;;;;6.80;3.83;;;25.50;83.40;;;;;;6180093;23;20462;-88
2022/06/11 11:28:35;;;;;;;5.30;3.17;;;25.50;83.40;;;;;;6181930;23;20419;-87
2022/06/11 11:31:26;;;;;;;6.20;3.90;;;25.70;82.00;;;;;;6182856;23;20438;-88
2022/06/11 11:34:12;;;;;;;5.80;3.50;;;25.60;82.40;;;;;;6178003;23;20381;-87
2022/06/11 11:36:51;;;;;;;5.77;3.60;;;25.70;82.70;;;;;;6181883;23;20412;-87
2022/06/11 11:39:25;;;;;;;6.83;3.97;;;25.80;81.40;;;;;;6178999;23;20419;-87
2022/06/11 11:42:12;;;;;;;8.90;4.47;;;25.60;82.50;;;;;;6177934;23;20399;-88
2022/06/11 11:44:49;;;;;;;6.10;3.87;;;25.30;83.60;;;;;;6179473;23;20435;-87
2022/06/11 11:47:24;;;;;;;7.50;4.13;;;25.20;84.40;;;;;;6177385;23;20408;-88
2022/06/11 11:49:56;;;;;;;5.10;3.40;;;25.30;84.10;;;;;;6176427;23;20443;-88
2022/06/11 11:52:27;;;;;;;5.37;4.00;;;25.20;84.30;;;;;;6176177;23;20396;-88
2022/06/11 11:55:08;;;;;;;4.83;3.40;;;25.30;84.50;;;;;;6182262;23;20403;-87
2022/06/11 11:57:55;;;;;;;7.20;4.47;;;25.40;83.30;;;;;;6172763;23;20415;-88
2022/06/11 12:00:32;;;;;;;7.43;4.20;;;25.60;83.00;;;;;;6173273;23;20513;-88
2022/06/11 12:03:20;;;;;;;6.40;3.80;;;25.70;82.20;;;;;;6173494;23;20406;-87
2022/06/11 12:05:57;;;;;;;5.83;3.40;;;25.80;81.50;;;;;;6176380;23;20463;-88
2022/06/11 12:08:41;;;;;;;6.00;3.80;;;25.70;81.20;;;;;;6170810;23;20494;-87
2022/06/11 12:11:19;;;;;;;5.00;3.60;;;25.70;81.40;;;;;;6177427;23;20419;-88
2022/06/11 12:13:54;;;;;;;6.63;3.83;;;25.60;81.30;;;;;;6171200;23;20404;-88
2022/06/11 12:16:37;;;;;;;5.43;3.80;;;25.40;81.30;;;;;;6180092;23;20412;-87
2022/06/11 12:19:20;;;;;;;6.17;3.70;;;25.40;80.90;;;;;;6167211;23;20501;-86
2022/06/11 12:21:58;;;;;;;6.63;3.87;;;25.50;81.20;;;;;;6167990;23;20377;-88
2022/06/11 12:24:45;;;;;;;8.07;3.60;;;25.70;80.90;;;;;;6164584;23;20741;-87
2022/06/11 12:27:18;;;;;;;6.90;3.60;;;25.90;80.10;;;;;;6166465;23;20416;-88
2022/06/11 12:29:53;;;;;;;6.50;3.20;;;26.10;78.90;;;;;;6166778;23;20431;-89
2022/06/11 12:32:23;;;;;;;5.50;3.13;;;26.30;77.20;;;;;;6177597;23;20431;-89
2022/06/11 12:34:57;;;;;;;5.73;3.40;;;26.40;76.50;;;;;;6175210;23;20881;-88
2022/06/11 12:37:37;;;;;;;5.93;2.93;;;26.50;76.50;;;;;;6163128;23;20403;-89
2022/06/11 12:40:21;;;;;;;7.33;4.20;;;26.60;75.50;;;;;;6165817;23;20423;-87
2022/06/11 12:43:05;;;;;;;4.90;3.80;;;26.60;75.70;;;;;;6165447;23;20396;-87
2022/06/11 12:45:42;;;;;;;5.60;3.80;;;26.70;75.60;;;;;;6166053;23;20446;-87
2022/06/11 12:48:25;;;;;;;8.50;3.80;;;26.80;75.50;;;;;;6165989;23;20407;-87
2022/06/11 12:51:00;;;;;;;6.80;3.60;;;26.60;75.50;;;;;;6166162;23;20419;-87
2022/06/11 12:53:50;;;;;;;5.80;3.30;;;26.60;75.30;;;;;;6165467;23;20415;-87
2022/06/11 12:56:44;;;;;;;5.80;3.90;;;26.60;74.20;;;;;;6169082;23;20380;-86
2022/06/11 12:59:42;;;;;;;5.60;3.23;;;26.60;74.40;;;;;;6165184;23;20470;-87
2022/06/11 13:02:41;;;;;;;6.50;3.50;;;26.70;74.70;;;;;;6164407;23;20419;-88
2022/06/11 13:05:47;;;;;;;12.80;3.83;;;26.80;74.60;;;;;;6164230;23;20439;-87
2022/06/11 13:08:31;;;;;;;5.30;3.70;;;27.00;74.60;;;;;;6120460;23;20426;-86
2022/06/11 13:11:15;;;;;;;6.10;3.60;;;27.20;72.70;;;;;;6173220;23;20392;-87
2022/06/11 13:14:07;;;;;;;4.27;3.00;;;27.10;71.50;;;;;;6172052;23;20411;-87
2022/06/11 13:16:41;;;;;;;5.17;3.80;;;26.90;71.80;;;;;;6171121;23;20435;-88
2022/06/11 13:19:34;;;;;;;6.77;3.57;;;26.80;73.00;;;;;;6169990;23;20461;-89